sensor_id;sensor_type;location;lat;lon;timestamp;temperature;humidity
1468;DHT22;727;48.892;9.544;2023-07-30T00:01:33;18.10;99.90
1468;DHT22;727;48.892;9.544;2023-07-30T00:04:00;18.20;99.90
1468;DHT22;727;48.892;9.544;2023-07-30T00:06:28;18.30;99.90
1468;DHT22;727;48.892;9.544;2023-07-30T00:08:55;18.30;99.90
1468;DHT22;727;48.892;9.544;2023-07-30T00:11:22;18.30;99.90
1468;DHT22;727;48.892;9.544;2023-07-30T00:13:48;18.40;99.90
1468;DHT22;727;48.892;9.544;2023-07-30T00:16:15;18.30;99.90
1468;DHT22;727;48.892;9.544;2023-07-30T00:18:42;18.30;99.90
1468;DHT22;727;48.892;9.544;2023-07-30T00:21:09;18.20;99.90
1468;DHT22;727;48.892;9.544;2023-07-30T00:23:37;18.10;99.90
1468;DHT22;727;48.892;9.544;2023-07-30T00:26:04;18.00;99.90
1468;DHT22;727;48.892;9.544;2023-07-30T00:28:30;18.00;99.90
1468;DHT22;727;48.892;9.544;2023-07-30T00:30:57;17.90;99.90
1468;DHT22;727;48.892;9.544;2023-07-30T00:33:24;17.80;99.90
1468;DHT22;727;48.892;9.544;2023-07-30T00:35:51;17.70;99.90
1468;DHT22;727;48.892;9.544;2023-07-30T00:38:19;17.60;99.90
1468;DHT22;727;48.892;9.544;2023-07-30T00:40:47;17.60;99.90
1468;DHT22;727;48.892;9.544;2023-07-30T00:43:14;17.50;99.90
1468;DHT22;727;48.892;9.544;2023-07-30T00:45:44;17.40;99.90
1468;DHT22;727;48.892;9.544;2023-07-30T00:48:11;17.30;99.90
1468;DHT22;727;48.892;9.544;2023-07-30T00:50:39;17.30;99.90
1468;DHT22;727;48.892;9.544;2023-07-30T00:53:07;17.30;99.90
1468;DHT22;727;48.892;9.544;2023-07-30T00:55:35;17.30;99.90
1468;DHT22;727;48.892;9.544;2023-07-30T00:58:03;17.20;99.90
1468;DHT22;727;48.892;9.544;2023-07-30T01:00:30;17.20;99.90
1468;DHT22;727;48.892;9.544;2023-07-30T01:02:57;17.10;99.90
1468;DHT22;727;48.892;9.544;2023-07-30T01:05:26;17.10;99.90
1468;DHT22;727;48.892;9.544;2023-07-30T01:07:52;17.10;99.90
1468;DHT22;727;48.892;9.544;2023-07-30T01:10:19;17.10;99.90
1468;DHT22;727;48.892;9.544;2023-07-30T01:12:48;17.00;99.90
1468;DHT22;727;48.892;9.544;2023-07-30T01:15:16;17.00;99.90
1468;DHT22;727;48.892;9.544;2023-07-30T01:17:43;17.00;99.90
1468;DHT22;727;48.892;9.544;2023-07-30T01:20:11;16.90;99.90
1468;DHT22;727;48.892;9.544;2023-07-30T01:22:39;16.90;99.90
1468;DHT22;727;48.892;9.544;2023-07-30T01:25:06;16.90;99.90
1468;DHT22;727;48.892;9.544;2023-07-30T01:27:39;16.80;99.90
1468;DHT22;727;48.892;9.544;2023-07-30T01:30:12;16.80;99.90
1468;DHT22;727;48.892;9.544;2023-07-30T01:32:40;16.90;99.90
1468;DHT22;727;48.892;9.544;2023-07-30T01:35:08;16.90;99.90
1468;DHT22;727;48.892;9.544;2023-07-30T01:37:36;16.80;99.90
1468;DHT22;727;48.892;9.544;2023-07-30T01:40:07;16.80;99.90
1468;DHT22;727;48.892;9.544;2023-07-30T01:42:35;16.80;99.90
1468;DHT22;727;48.892;9.544;2023-07-30T01:45:04;16.80;99.90
1468;DHT22;727;48.892;9.544;2023-07-30T01:47:31;16.70;99.90
1468;DHT22;727;48.892;9.544;2023-07-30T01:49:57;16.80;99.90
1468;DHT22;727;48.892;9.544;2023-07-30T01:52:25;16.70;99.90
1468;DHT22;727;48.892;9.544;2023-07-30T01:54:52;16.70;99.90
1468;DHT22;727;48.892;9.544;2023-07-30T01:57:22;16.70;99.90
1468;DHT22;727;48.892;9.544;2023-07-30T01:59:49;16.70;99.90
1468;DHT22;727;48.892;9.544;2023-07-30T02:02:16;16.70;99.90
1468;DHT22;727;48.892;9.544;2023-07-30T02:04:43;16.70;99.90
1468;DHT22;727;48.892;9.544;2023-07-30T02:07:10;16.70;99.90
1468;DHT22;727;48.892;9.544;2023-07-30T02:09:36;16.70;99.90
1468;DHT22;727;48.892;9.544;2023-07-30T02:12:04;16.70;99.90
1468;DHT22;727;48.892;9.544;2023-07-30T02:14:32;16.80;99.90
1468;DHT22;727;48.892;9.544;2023-07-30T02:16:59;16.80;99.90
1468;DHT22;727;48.892;9.544;2023-07-30T02:19:26;16.80;99.90
1468;DHT22;727;48.892;9.544;2023-07-30T02:21:52;16.80;99.90
1468;DHT22;727;48.892;9.544;2023-07-30T02:24:19;16.80;99.90
1468;DHT22;727;48.892;9.544;2023-07-30T02:26:46;16.80;99.90
1468;DHT22;727;48.892;9.544;2023-07-30T02:29:14;16.80;99.90
1468;DHT22;727;48.892;9.544;2023-07-30T02:31:42;16.80;99.90
1468;DHT22;727;48.892;9.544;2023-07-30T02:34:09;16.70;99.90
1468;DHT22;727;48.892;9.544;2023-07-30T02:36:36;16.80;99.90
1468;DHT22;727;48.892;9.544;2023-07-30T02:39:02;16.70;99.90
1468;DHT22;727;48.892;9.544;2023-07-30T02:41:29;16.70;99.90
1468;DHT22;727;48.892;9.544;2023-07-30T02:43:56;16.70;99.90
1468;DHT22;727;48.892;9.544;2023-07-30T02:46:23;16.70;99.90
1468;DHT22;727;48.892;9.544;2023-07-30T02:48:51;16.70;99.90
1468;DHT22;727;48.892;9.544;2023-07-30T02:51:18;16.80;99.90
1468;DHT22;727;48.892;9.544;2023-07-30T02:53:44;16.80;99.90
1468;DHT22;727;48.892;9.544;2023-07-30T02:56:11;16.80;99.90
1468;DHT22;727;48.892;9.544;2023-07-30T02:58:38;16.80;99.90
1468;DHT22;727;48.892;9.544;2023-07-30T03:01:06;16.90;99.90
1468;DHT22;727;48.892;9.544;2023-07-30T03:03:33;16.90;99.90
1468;DHT22;727;48.892;9.544;2023-07-30T03:06:01;16.90;99.90
1468;DHT22;727;48.892;9.544;2023-07-30T03:08:28;16.90;99.90
1468;DHT22;727;48.892;9.544;2023-07-30T03:10:58;16.90;99.90
1468;DHT22;727;48.892;9.544;2023-07-30T03:13:24;16.90;99.90
1468;DHT22;727;48.892;9.544;2023-07-30T03:15:51;16.90;99.90
1468;DHT22;727;48.892;9.544;2023-07-30T03:18:18;17.00;99.90
1468;DHT22;727;48.892;9.544;2023-07-30T03:20:45;17.00;99.90
1468;DHT22;727;48.892;9.544;2023-07-30T03:23:13;17.00;99.90
1468;DHT22;727;48.892;9.544;2023-07-30T03:25:40;16.90;99.90
1468;DHT22;727;48.892;9.544;2023-07-30T03:28:06;16.90;99.90
1468;DHT22;727;48.892;9.544;2023-07-30T03:30:33;16.90;99.90
1468;DHT22;727;48.892;9.544;2023-07-30T03:33:00;16.90;99.90
1468;DHT22;727;48.892;9.544;2023-07-30T03:35:27;16.90;99.90
1468;DHT22;727;48.892;9.544;2023-07-30T03:37:53;16.90;99.90
1468;DHT22;727;48.892;9.544;2023-07-30T03:40:22;16.90;99.90
1468;DHT22;727;48.892;9.544;2023-07-30T03:42:49;17.00;99.90
1468;DHT22;727;48.892;9.544;2023-07-30T03:45:16;17.00;99.90
1468;DHT22;727;48.892;9.544;2023-07-30T03:47:43;17.00;99.90
1468;DHT22;727;48.892;9.544;2023-07-30T03:50:09;17.00;99.90
1468;DHT22;727;48.892;9.544;2023-07-30T03:52:37;17.10;99.90
1468;DHT22;727;48.892;9.544;2023-07-30T03:55:04;17.10;99.90
1468;DHT22;727;48.892;9.544;2023-07-30T03:57:32;17.00;99.90
1468;DHT22;727;48.892;9.544;2023-07-30T03:59:59;17.10;99.90
1468;DHT22;727;48.892;9.544;2023-07-30T04:02:26;17.10;99.90
1468;DHT22;727;48.892;9.544;2023-07-30T04:04:53;17.10;99.90
1468;DHT22;727;48.892;9.544;2023-07-30T04:07:19;17.10;99.90
1468;DHT22;727;48.892;9.544;2023-07-30T04:09:46;17.10;99.90
1468;DHT22;727;48.892;9.544;2023-07-30T04:12:13;17.10;99.90
1468;DHT22;727;48.892;9.544;2023-07-30T04:14:41;17.10;99.90
1468;DHT22;727;48.892;9.544;2023-07-30T04:17:08;17.10;99.90
1468;DHT22;727;48.892;9.544;2023-07-30T04:19:35;17.20;99.90
1468;DHT22;727;48.892;9.544;2023-07-30T04:22:02;17.20;99.90
1468;DHT22;727;48.892;9.544;2023-07-30T04:24:28;17.20;99.90
1468;DHT22;727;48.892;9.544;2023-07-30T04:26:55;17.20;99.90
1468;DHT22;727;48.892;9.544;2023-07-30T04:29:22;17.30;99.90
1468;DHT22;727;48.892;9.544;2023-07-30T04:31:50;17.30;99.90
1468;DHT22;727;48.892;9.544;2023-07-30T04:34:17;17.30;99.90
1468;DHT22;727;48.892;9.544;2023-07-30T04:36:44;17.40;99.90
1468;DHT22;727;48.892;9.544;2023-07-30T04:39:11;17.40;99.90
1468;DHT22;727;48.892;9.544;2023-07-30T04:41:38;17.60;99.90
1468;DHT22;727;48.892;9.544;2023-07-30T04:44:05;17.60;99.90
1468;DHT22;727;48.892;9.544;2023-07-30T04:46:32;17.80;99.90
1468;DHT22;727;48.892;9.544;2023-07-30T04:49:02;17.90;99.90
1468;DHT22;727;48.892;9.544;2023-07-30T04:51:29;18.00;99.90
1468;DHT22;727;48.892;9.544;2023-07-30T04:53:56;18.10;99.90
1468;DHT22;727;48.892;9.544;2023-07-30T04:56:23;18.10;99.90
1468;DHT22;727;48.892;9.544;2023-07-30T04:58:52;18.00;99.90
1468;DHT22;727;48.892;9.544;2023-07-30T05:01:18;18.00;99.90
1468;DHT22;727;48.892;9.544;2023-07-30T05:03:45;18.00;99.90
1468;DHT22;727;48.892;9.544;2023-07-30T05:06:15;17.90;99.90
1468;DHT22;727;48.892;9.544;2023-07-30T05:08:42;17.90;99.90
1468;DHT22;727;48.892;9.544;2023-07-30T05:11:09;17.90;99.90
1468;DHT22;727;48.892;9.544;2023-07-30T05:13:36;17.90;99.90
1468;DHT22;727;48.892;9.544;2023-07-30T05:16:03;17.80;99.90
1468;DHT22;727;48.892;9.544;2023-07-30T05:18:30;17.80;99.90
1468;DHT22;727;48.892;9.544;2023-07-30T05:20:59;17.80;99.90
1468;DHT22;727;48.892;9.544;2023-07-30T05:23:27;17.80;99.90
1468;DHT22;727;48.892;9.544;2023-07-30T05:25:54;17.80;99.90
1468;DHT22;727;48.892;9.544;2023-07-30T05:28:20;17.80;99.90
1468;DHT22;727;48.892;9.544;2023-07-30T05:30:47;17.80;99.90
1468;DHT22;727;48.892;9.544;2023-07-30T05:33:14;17.80;99.90
1468;DHT22;727;48.892;9.544;2023-07-30T05:35:41;17.90;99.90
1468;DHT22;727;48.892;9.544;2023-07-30T05:38:08;17.90;99.90
1468;DHT22;727;48.892;9.544;2023-07-30T05:40:36;18.00;99.90
1468;DHT22;727;48.892;9.544;2023-07-30T05:43:03;18.00;99.90
1468;DHT22;727;48.892;9.544;2023-07-30T05:45:30;18.10;99.90
1468;DHT22;727;48.892;9.544;2023-07-30T05:47:56;18.10;99.90
1468;DHT22;727;48.892;9.544;2023-07-30T05:50:23;18.10;99.90
1468;DHT22;727;48.892;9.544;2023-07-30T05:52:50;18.00;99.90
1468;DHT22;727;48.892;9.544;2023-07-30T05:55:17;18.00;99.90
1468;DHT22;727;48.892;9.544;2023-07-30T05:57:45;18.00;99.90
1468;DHT22;727;48.892;9.544;2023-07-30T06:00:12;17.90;99.90
1468;DHT22;727;48.892;9.544;2023-07-30T06:02:39;18.00;99.90
1468;DHT22;727;48.892;9.544;2023-07-30T06:05:07;17.90;99.90
1468;DHT22;727;48.892;9.544;2023-07-30T06:07:33;18.00;99.90
1468;DHT22;727;48.892;9.544;2023-07-30T06:10:00;18.00;99.90
1468;DHT22;727;48.892;9.544;2023-07-30T06:12:27;18.00;99.90
1468;DHT22;727;48.892;9.544;2023-07-30T06:14:55;18.20;99.90
1468;DHT22;727;48.892;9.544;2023-07-30T06:17:22;18.30;99.90
1468;DHT22;727;48.892;9.544;2023-07-30T06:19:48;18.50;99.90
1468;DHT22;727;48.892;9.544;2023-07-30T06:22:15;18.70;99.90
1468;DHT22;727;48.892;9.544;2023-07-30T06:24:42;18.90;99.90
1468;DHT22;727;48.892;9.544;2023-07-30T06:27:09;19.00;99.90
1468;DHT22;727;48.892;9.544;2023-07-30T06:29:37;19.10;99.90
1468;DHT22;727;48.892;9.544;2023-07-30T06:32:07;19.40;99.90
1468;DHT22;727;48.892;9.544;2023-07-30T06:34:36;19.90;99.90
1468;DHT22;727;48.892;9.544;2023-07-30T06:37:03;20.60;99.90
1468;DHT22;727;48.892;9.544;2023-07-30T06:39:30;21.10;99.90
1468;DHT22;727;48.892;9.544;2023-07-30T06:41:57;21.30;99.90
1468;DHT22;727;48.892;9.544;2023-07-30T06:44:23;21.50;99.90
1468;DHT22;727;48.892;9.544;2023-07-30T06:46:51;21.50;99.90
1468;DHT22;727;48.892;9.544;2023-07-30T06:49:19;21.40;99.90
1468;DHT22;727;48.892;9.544;2023-07-30T06:51:46;21.30;99.90
1468;DHT22;727;48.892;9.544;2023-07-30T06:54:12;21.20;99.90
1468;DHT22;727;48.892;9.544;2023-07-30T06:56:39;21.30;99.90
1468;DHT22;727;48.892;9.544;2023-07-30T06:59:06;21.40;99.90
1468;DHT22;727;48.892;9.544;2023-07-30T07:01:33;21.40;99.90
1468;DHT22;727;48.892;9.544;2023-07-30T07:03:59;21.40;99.90
1468;DHT22;727;48.892;9.544;2023-07-30T07:06:27;21.40;99.90
1468;DHT22;727;48.892;9.544;2023-07-30T07:08:54;21.30;99.90
1468;DHT22;727;48.892;9.544;2023-07-30T07:11:21;21.30;99.90
1468;DHT22;727;48.892;9.544;2023-07-30T07:13:48;21.30;99.90
1468;DHT22;727;48.892;9.544;2023-07-30T07:16:14;21.50;99.90
1468;DHT22;727;48.892;9.544;2023-07-30T07:18:41;22.00;99.90
1468;DHT22;727;48.892;9.544;2023-07-30T07:21:08;22.40;99.90
1468;DHT22;727;48.892;9.544;2023-07-30T07:23:36;23.00;99.90
1468;DHT22;727;48.892;9.544;2023-07-30T07:26:02;23.80;99.90
1468;DHT22;727;48.892;9.544;2023-07-30T07:28:29;24.30;99.90
1468;DHT22;727;48.892;9.544;2023-07-30T07:30:56;24.20;99.90
1468;DHT22;727;48.892;9.544;2023-07-30T07:33:23;24.00;99.90
1468;DHT22;727;48.892;9.544;2023-07-30T07:35:49;23.60;99.90
1468;DHT22;727;48.892;9.544;2023-07-30T07:38:16;23.30;99.90
1468;DHT22;727;48.892;9.544;2023-07-30T07:40:44;22.80;99.90
1468;DHT22;727;48.892;9.544;2023-07-30T07:43:11;22.40;99.90
1468;DHT22;727;48.892;9.544;2023-07-30T07:45:38;22.00;99.90
1468;DHT22;727;48.892;9.544;2023-07-30T07:48:05;21.70;99.90
1468;DHT22;727;48.892;9.544;2023-07-30T07:50:31;21.30;99.90
1468;DHT22;727;48.892;9.544;2023-07-30T07:52:58;21.10;99.90
1468;DHT22;727;48.892;9.544;2023-07-30T07:55:25;20.90;99.90
1468;DHT22;727;48.892;9.544;2023-07-30T07:57:53;20.70;99.90
1468;DHT22;727;48.892;9.544;2023-07-30T08:00:19;20.50;99.90
1468;DHT22;727;48.892;9.544;2023-07-30T08:02:47;20.50;99.90
1468;DHT22;727;48.892;9.544;2023-07-30T08:05:14;20.40;99.90
1468;DHT22;727;48.892;9.544;2023-07-30T08:07:41;20.30;99.90
1468;DHT22;727;48.892;9.544;2023-07-30T08:10:10;20.30;99.90
1468;DHT22;727;48.892;9.544;2023-07-30T08:12:36;20.30;99.90
1468;DHT22;727;48.892;9.544;2023-07-30T08:15:06;20.30;99.90
1468;DHT22;727;48.892;9.544;2023-07-30T08:17:32;20.20;99.90
1468;DHT22;727;48.892;9.544;2023-07-30T08:19:59;20.10;99.90
1468;DHT22;727;48.892;9.544;2023-07-30T08:22:26;19.90;99.90
1468;DHT22;727;48.892;9.544;2023-07-30T08:24:53;19.70;99.90
1468;DHT22;727;48.892;9.544;2023-07-30T08:27:19;19.60;99.90
1468;DHT22;727;48.892;9.544;2023-07-30T08:29:46;19.50;99.90
1468;DHT22;727;48.892;9.544;2023-07-30T08:32:14;19.40;99.90
1468;DHT22;727;48.892;9.544;2023-07-30T08:34:41;19.50;99.90
1468;DHT22;727;48.892;9.544;2023-07-30T08:37:08;19.80;99.90
1468;DHT22;727;48.892;9.544;2023-07-30T08:39:34;20.00;99.90
1468;DHT22;727;48.892;9.544;2023-07-30T08:42:01;20.20;99.90
1468;DHT22;727;48.892;9.544;2023-07-30T08:44:29;20.30;99.90
1468;DHT22;727;48.892;9.544;2023-07-30T08:46:56;20.50;99.90
1468;DHT22;727;48.892;9.544;2023-07-30T08:49:24;20.70;99.90
1468;DHT22;727;48.892;9.544;2023-07-30T08:51:54;20.80;99.90
1468;DHT22;727;48.892;9.544;2023-07-30T08:54:22;21.00;99.90
1468;DHT22;727;48.892;9.544;2023-07-30T08:56:50;21.20;99.90
1468;DHT22;727;48.892;9.544;2023-07-30T08:59:18;21.40;99.90
1468;DHT22;727;48.892;9.544;2023-07-30T09:01:47;21.60;99.90
1468;DHT22;727;48.892;9.544;2023-07-30T09:04:18;21.80;99.90
1468;DHT22;727;48.892;9.544;2023-07-30T09:06:49;21.90;99.90
1468;DHT22;727;48.892;9.544;2023-07-30T09:09:16;22.00;99.90
1468;DHT22;727;48.892;9.544;2023-07-30T09:11:43;22.10;99.90
1468;DHT22;727;48.892;9.544;2023-07-30T09:14:10;22.10;99.90
1468;DHT22;727;48.892;9.544;2023-07-30T09:16:36;22.40;99.90
1468;DHT22;727;48.892;9.544;2023-07-30T09:19:06;22.60;99.90
1468;DHT22;727;48.892;9.544;2023-07-30T09:21:34;22.50;99.90
1468;DHT22;727;48.892;9.544;2023-07-30T09:24:03;22.70;99.90
1468;DHT22;727;48.892;9.544;2023-07-30T09:26:40;22.70;99.90
1468;DHT22;727;48.892;9.544;2023-07-30T09:29:08;23.10;99.90
1468;DHT22;727;48.892;9.544;2023-07-30T09:31:45;23.30;99.90
1468;DHT22;727;48.892;9.544;2023-07-30T09:34:15;23.70;99.90
1468;DHT22;727;48.892;9.544;2023-07-30T09:36:44;23.60;99.90
1468;DHT22;727;48.892;9.544;2023-07-30T09:39:16;23.70;99.90
1468;DHT22;727;48.892;9.544;2023-07-30T09:41:44;23.60;99.90
1468;DHT22;727;48.892;9.544;2023-07-30T09:44:11;23.30;99.90
1468;DHT22;727;48.892;9.544;2023-07-30T09:46:49;23.00;99.90
1468;DHT22;727;48.892;9.544;2023-07-30T09:49:17;22.80;99.90
1468;DHT22;727;48.892;9.544;2023-07-30T09:51:44;22.70;99.90
1468;DHT22;727;48.892;9.544;2023-07-30T09:54:12;22.80;99.90
1468;DHT22;727;48.892;9.544;2023-07-30T09:56:41;22.70;99.90
1468;DHT22;727;48.892;9.544;2023-07-30T09:59:09;22.70;99.90
1468;DHT22;727;48.892;9.544;2023-07-30T10:01:38;22.80;99.90
1468;DHT22;727;48.892;9.544;2023-07-30T10:04:08;22.90;99.90
1468;DHT22;727;48.892;9.544;2023-07-30T10:06:38;22.70;99.90
1468;DHT22;727;48.892;9.544;2023-07-30T10:09:07;22.60;99.90
1468;DHT22;727;48.892;9.544;2023-07-30T10:11:36;22.80;99.90
1468;DHT22;727;48.892;9.544;2023-07-30T10:14:05;23.40;99.90
1468;DHT22;727;48.892;9.544;2023-07-30T10:16:32;23.60;99.90
1468;DHT22;727;48.892;9.544;2023-07-30T10:18:59;23.50;99.90
1468;DHT22;727;48.892;9.544;2023-07-30T10:21:27;23.40;99.90
1468;DHT22;727;48.892;9.544;2023-07-30T10:23:59;23.40;99.90
1468;DHT22;727;48.892;9.544;2023-07-30T10:26:27;23.50;99.90
1468;DHT22;727;48.892;9.544;2023-07-30T10:29:11;23.50;99.50
1468;DHT22;727;48.892;9.544;2023-07-30T10:31:39;23.30;99.80
1468;DHT22;727;48.892;9.544;2023-07-30T10:34:07;23.20;98.20
1468;DHT22;727;48.892;9.544;2023-07-30T10:36:41;23.20;98.30
1468;DHT22;727;48.892;9.544;2023-07-30T10:39:13;23.20;98.80
1468;DHT22;727;48.892;9.544;2023-07-30T10:41:41;23.40;99.10
1468;DHT22;727;48.892;9.544;2023-07-30T10:44:19;23.20;97.70
1468;DHT22;727;48.892;9.544;2023-07-30T10:46:48;23.30;98.20
1468;DHT22;727;48.892;9.544;2023-07-30T10:49:14;23.50;96.70
1468;DHT22;727;48.892;9.544;2023-07-30T10:51:41;23.80;96.60
1468;DHT22;727;48.892;9.544;2023-07-30T10:54:08;24.60;95.60
1468;DHT22;727;48.892;9.544;2023-07-30T10:56:36;25.00;94.40
1468;DHT22;727;48.892;9.544;2023-07-30T10:59:04;25.10;94.30
1468;DHT22;727;48.892;9.544;2023-07-30T11:01:36;24.70;93.00
1468;DHT22;727;48.892;9.544;2023-07-30T11:04:09;24.50;94.80
1468;DHT22;727;48.892;9.544;2023-07-30T11:06:36;24.40;94.90
1468;DHT22;727;48.892;9.544;2023-07-30T11:09:03;24.50;94.20
1468;DHT22;727;48.892;9.544;2023-07-30T11:11:30;24.90;94.60
1468;DHT22;727;48.892;9.544;2023-07-30T11:13:58;25.40;93.30
1468;DHT22;727;48.892;9.544;2023-07-30T11:16:25;25.70;91.10
1468;DHT22;727;48.892;9.544;2023-07-30T11:18:53;26.00;88.90
1468;DHT22;727;48.892;9.544;2023-07-30T11:21:20;26.00;87.70
1468;DHT22;727;48.892;9.544;2023-07-30T11:23:47;26.00;84.70
1468;DHT22;727;48.892;9.544;2023-07-30T11:26:16;25.90;83.90
1468;DHT22;727;48.892;9.544;2023-07-30T11:28:44;25.80;84.80
1468;DHT22;727;48.892;9.544;2023-07-30T11:31:13;25.60;82.20
1468;DHT22;727;48.892;9.544;2023-07-30T11:33:41;25.00;85.00
1468;DHT22;727;48.892;9.544;2023-07-30T11:36:11;24.90;86.60
1468;DHT22;727;48.892;9.544;2023-07-30T11:38:39;24.70;89.80
1468;DHT22;727;48.892;9.544;2023-07-30T11:41:06;24.60;89.90
1468;DHT22;727;48.892;9.544;2023-07-30T11:43:36;24.10;90.70
1468;DHT22;727;48.892;9.544;2023-07-30T11:46:10;23.90;91.70
1468;DHT22;727;48.892;9.544;2023-07-30T11:48:38;23.60;91.90
1468;DHT22;727;48.892;9.544;2023-07-30T11:51:04;23.10;92.70
1468;DHT22;727;48.892;9.544;2023-07-30T11:53:46;22.90;93.80
1468;DHT22;727;48.892;9.544;2023-07-30T11:56:19;22.50;92.80
1468;DHT22;727;48.892;9.544;2023-07-30T11:58:48;22.30;93.20
1468;DHT22;727;48.892;9.544;2023-07-30T12:01:15;22.30;93.70
1468;DHT22;727;48.892;9.544;2023-07-30T12:03:42;22.40;92.00
1468;DHT22;727;48.892;9.544;2023-07-30T12:06:10;22.50;92.40
1468;DHT22;727;48.892;9.544;2023-07-30T12:08:37;22.70;93.30
1468;DHT22;727;48.892;9.544;2023-07-30T12:11:06;23.10;92.10
1468;DHT22;727;48.892;9.544;2023-07-30T12:13:33;23.70;91.90
1468;DHT22;727;48.892;9.544;2023-07-30T12:16:00;24.40;90.10
1468;DHT22;727;48.892;9.544;2023-07-30T12:18:28;25.00;87.20
1468;DHT22;727;48.892;9.544;2023-07-30T12:20:55;25.30;87.50
1468;DHT22;727;48.892;9.544;2023-07-30T12:23:23;25.20;85.90
1468;DHT22;727;48.892;9.544;2023-07-30T12:25:50;25.10;86.40
1468;DHT22;727;48.892;9.544;2023-07-30T12:28:19;25.00;86.00
1468;DHT22;727;48.892;9.544;2023-07-30T12:30:46;25.00;87.20
1468;DHT22;727;48.892;9.544;2023-07-30T12:33:13;24.90;87.00
1468;DHT22;727;48.892;9.544;2023-07-30T12:35:40;25.30;85.70
1468;DHT22;727;48.892;9.544;2023-07-30T12:38:06;25.50;84.30
1468;DHT22;727;48.892;9.544;2023-07-30T12:40:33;25.60;85.80
1468;DHT22;727;48.892;9.544;2023-07-30T12:43:01;26.00;84.00
1468;DHT22;727;48.892;9.544;2023-07-30T12:45:30;25.90;82.40
1468;DHT22;727;48.892;9.544;2023-07-30T12:47:58;25.40;83.10
1468;DHT22;727;48.892;9.544;2023-07-30T12:50:25;25.40;85.10
1468;DHT22;727;48.892;9.544;2023-07-30T12:52:51;25.60;84.10
1468;DHT22;727;48.892;9.544;2023-07-30T12:55:18;25.60;83.60
1468;DHT22;727;48.892;9.544;2023-07-30T12:57:45;25.70;83.40
1468;DHT22;727;48.892;9.544;2023-07-30T13:00:12;25.50;84.10
1468;DHT22;727;48.892;9.544;2023-07-30T13:02:40;25.50;84.90
1468;DHT22;727;48.892;9.544;2023-07-30T13:05:07;25.40;84.90
1468;DHT22;727;48.892;9.544;2023-07-30T13:07:34;25.50;84.80
1468;DHT22;727;48.892;9.544;2023-07-30T13:10:05;25.40;83.90
1468;DHT22;727;48.892;9.544;2023-07-30T13:12:33;25.40;84.50
1468;DHT22;727;48.892;9.544;2023-07-30T13:15:00;25.70;85.10
1468;DHT22;727;48.892;9.544;2023-07-30T13:17:27;26.00;81.60
1468;DHT22;727;48.892;9.544;2023-07-30T13:19:55;25.80;82.30
1468;DHT22;727;48.892;9.544;2023-07-30T13:22:22;25.60;83.50
1468;DHT22;727;48.892;9.544;2023-07-30T13:24:49;25.80;83.70
1468;DHT22;727;48.892;9.544;2023-07-30T13:27:16;25.90;80.50
1468;DHT22;727;48.892;9.544;2023-07-30T13:29:43;25.70;78.90
1468;DHT22;727;48.892;9.544;2023-07-30T13:32:10;25.80;78.70
1468;DHT22;727;48.892;9.544;2023-07-30T13:34:37;26.00;79.20
1468;DHT22;727;48.892;9.544;2023-07-30T13:37:06;26.30;77.20
1468;DHT22;727;48.892;9.544;2023-07-30T13:39:33;26.30;78.80
1468;DHT22;727;48.892;9.544;2023-07-30T13:42:00;26.60;76.40
1468;DHT22;727;48.892;9.544;2023-07-30T13:44:27;26.60;73.90
1468;DHT22;727;48.892;9.544;2023-07-30T13:46:53;26.00;74.30
1468;DHT22;727;48.892;9.544;2023-07-30T13:49:20;25.90;75.00
1468;DHT22;727;48.892;9.544;2023-07-30T13:51:47;25.70;75.50
1468;DHT22;727;48.892;9.544;2023-07-30T13:54:15;25.60;77.00
1468;DHT22;727;48.892;9.544;2023-07-30T13:56:42;25.40;76.00
1468;DHT22;727;48.892;9.544;2023-07-30T13:59:08;25.10;76.40
1468;DHT22;727;48.892;9.544;2023-07-30T14:01:35;25.10;76.70
1468;DHT22;727;48.892;9.544;2023-07-30T14:04:02;25.10;77.20
1468;DHT22;727;48.892;9.544;2023-07-30T14:06:29;25.50;77.00
1468;DHT22;727;48.892;9.544;2023-07-30T14:08:56;25.60;76.70
1468;DHT22;727;48.892;9.544;2023-07-30T14:11:26;25.50;74.30
1468;DHT22;727;48.892;9.544;2023-07-30T14:13:53;25.30;76.90
1468;DHT22;727;48.892;9.544;2023-07-30T14:16:19;25.10;76.00
1468;DHT22;727;48.892;9.544;2023-07-30T14:18:46;24.70;77.70
1468;DHT22;727;48.892;9.544;2023-07-30T14:21:13;24.60;78.30
1468;DHT22;727;48.892;9.544;2023-07-30T14:23:40;24.80;78.70
1468;DHT22;727;48.892;9.544;2023-07-30T14:26:06;24.80;78.10
1468;DHT22;727;48.892;9.544;2023-07-30T14:28:35;24.50;78.00
1468;DHT22;727;48.892;9.544;2023-07-30T14:31:01;24.30;80.00
1468;DHT22;727;48.892;9.544;2023-07-30T14:33:28;24.50;78.50
1468;DHT22;727;48.892;9.544;2023-07-30T14:35:55;24.70;79.00
1468;DHT22;727;48.892;9.544;2023-07-30T14:38:22;24.90;79.00
1468;DHT22;727;48.892;9.544;2023-07-30T14:40:49;24.80;78.00
1468;DHT22;727;48.892;9.544;2023-07-30T14:43:15;24.90;77.50
1468;DHT22;727;48.892;9.544;2023-07-30T14:45:43;24.90;78.20
1468;DHT22;727;48.892;9.544;2023-07-30T14:48:10;24.50;78.00
1468;DHT22;727;48.892;9.544;2023-07-30T14:50:37;24.50;78.40
1468;DHT22;727;48.892;9.544;2023-07-30T14:53:04;24.60;77.90
1468;DHT22;727;48.892;9.544;2023-07-30T14:55:32;24.40;77.90
1468;DHT22;727;48.892;9.544;2023-07-30T14:57:59;24.60;79.30
1468;DHT22;727;48.892;9.544;2023-07-30T15:00:27;24.70;77.30
1468;DHT22;727;48.892;9.544;2023-07-30T15:02:55;24.60;76.40
1468;DHT22;727;48.892;9.544;2023-07-30T15:05:22;24.50;77.50
1468;DHT22;727;48.892;9.544;2023-07-30T15:07:48;24.70;76.70
1468;DHT22;727;48.892;9.544;2023-07-30T15:10:15;24.60;75.00
1468;DHT22;727;48.892;9.544;2023-07-30T15:12:42;24.20;77.50
1468;DHT22;727;48.892;9.544;2023-07-30T15:15:10;24.00;77.20
1468;DHT22;727;48.892;9.544;2023-07-30T15:17:37;24.00;76.00
1468;DHT22;727;48.892;9.544;2023-07-30T15:20:06;24.00;76.90
1468;DHT22;727;48.892;9.544;2023-07-30T15:22:33;24.00;76.80
1468;DHT22;727;48.892;9.544;2023-07-30T15:25:02;23.90;76.50
1468;DHT22;727;48.892;9.544;2023-07-30T15:27:30;24.00;77.10
1468;DHT22;727;48.892;9.544;2023-07-30T15:29:56;24.00;75.70
1468;DHT22;727;48.892;9.544;2023-07-30T15:32:23;24.20;76.10
1468;DHT22;727;48.892;9.544;2023-07-30T15:34:50;24.30;75.30
1468;DHT22;727;48.892;9.544;2023-07-30T15:37:18;24.20;76.30
1468;DHT22;727;48.892;9.544;2023-07-30T15:39:45;24.20;74.10
1468;DHT22;727;48.892;9.544;2023-07-30T15:42:12;24.40;72.90
1468;DHT22;727;48.892;9.544;2023-07-30T15:44:38;24.40;73.20
1468;DHT22;727;48.892;9.544;2023-07-30T15:47:05;24.30;71.10
1468;DHT22;727;48.892;9.544;2023-07-30T15:49:32;23.90;70.40
1468;DHT22;727;48.892;9.544;2023-07-30T15:51:59;23.70;71.50
1468;DHT22;727;48.892;9.544;2023-07-30T15:54:34;23.70;71.60
1468;DHT22;727;48.892;9.544;2023-07-30T15:57:01;23.50;71.40
1468;DHT22;727;48.892;9.544;2023-07-30T15:59:31;23.40;74.60
1468;DHT22;727;48.892;9.544;2023-07-30T16:01:58;23.40;73.90
1468;DHT22;727;48.892;9.544;2023-07-30T16:04:25;23.50;74.10
1468;DHT22;727;48.892;9.544;2023-07-30T16:06:53;23.60;72.80
1468;DHT22;727;48.892;9.544;2023-07-30T16:09:20;23.50;72.00
1468;DHT22;727;48.892;9.544;2023-07-30T16:11:49;23.40;73.90
1468;DHT22;727;48.892;9.544;2023-07-30T16:14:15;23.60;73.20
1468;DHT22;727;48.892;9.544;2023-07-30T16:16:43;23.60;72.90
1468;DHT22;727;48.892;9.544;2023-07-30T16:19:10;23.60;72.20